sensor_id;sensor_type;location;lat;lon;timestamp;P1;durP1;ratioP1;P2;durP2;ratioP2
25653;SDS011;13511;48.622;9.230;2023-06-14T00:01:24;7.63;;;7.07;;
25653;SDS011;13511;48.622;9.230;2023-06-14T00:03:51;7.35;;;6.85;;
25653;SDS011;13511;48.622;9.230;2023-06-14T00:06:17;7.57;;;6.97;;
25653;SDS011;13511;48.622;9.230;2023-06-14T00:08:43;6.90;;;6.45;;
25653;SDS011;13511;48.622;9.230;2023-06-14T00:11:09;7.50;;;6.90;;
25653;SDS011;13511;48.622;9.230;2023-06-14T00:13:35;7.50;;;7.00;;
25653;SDS011;13511;48.622;9.230;2023-06-14T00:16:01;8.05;;;7.10;;
25653;SDS011;13511;48.622;9.230;2023-06-14T00:18:29;7.65;;;7.13;;
25653;SDS011;13511;48.622;9.230;2023-06-14T00:20:55;8.05;;;7.40;;
25653;SDS011;13511;48.622;9.230;2023-06-14T00:23:21;10.63;;;7.45;;
25653;SDS011;13511;48.622;9.230;2023-06-14T00:25:47;8.15;;;7.35;;
25653;SDS011;13511;48.622;9.230;2023-06-14T00:28:14;7.18;;;6.57;;
25653;SDS011;13511;48.622;9.230;2023-06-14T00:30:40;7.75;;;6.93;;
25653;SDS011;13511;48.622;9.230;2023-06-14T00:33:06;10.18;;;7.40;;
25653;SDS011;13511;48.622;9.230;2023-06-14T00:35:32;7.60;;;6.88;;
25653;SDS011;13511;48.622;9.230;2023-06-14T00:37:58;7.72;;;7.13;;
25653;SDS011;13511;48.622;9.230;2023-06-14T00:40:24;8.02;;;7.40;;
25653;SDS011;13511;48.622;9.230;2023-06-14T00:42:50;7.88;;;7.07;;
25653;SDS011;13511;48.622;9.230;2023-06-14T00:45:16;8.70;;;7.32;;
25653;SDS011;13511;48.622;9.230;2023-06-14T00:47:42;8.13;;;7.10;;
25653;SDS011;13511;48.622;9.230;2023-06-14T00:50:09;7.20;;;6.80;;
25653;SDS011;13511;48.622;9.230;2023-06-14T00:52:36;7.63;;;7.05;;
25653;SDS011;13511;48.622;9.230;2023-06-14T00:55:03;8.30;;;7.60;;
25653;SDS011;13511;48.622;9.230;2023-06-14T00:57:29;8.68;;;7.78;;
25653;SDS011;13511;48.622;9.230;2023-06-14T00:59:56;7.80;;;7.30;;
25653;SDS011;13511;48.622;9.230;2023-06-14T01:02:22;8.90;;;7.78;;
25653;SDS011;13511;48.622;9.230;2023-06-14T01:04:49;8.38;;;7.30;;
25653;SDS011;13511;48.622;9.230;2023-06-14T01:07:34;8.23;;;7.53;;
25653;SDS011;13511;48.622;9.230;2023-06-14T01:10:12;7.95;;;7.25;;
25653;SDS011;13511;48.622;9.230;2023-06-14T01:15:10;9.90;;;8.07;;
25653;SDS011;13511;48.622;9.230;2023-06-14T01:17:37;8.35;;;7.75;;
25653;SDS011;13511;48.622;9.230;2023-06-14T01:20:06;9.23;;;8.38;;
25653;SDS011;13511;48.622;9.230;2023-06-14T01:22:37;8.52;;;7.80;;
25653;SDS011;13511;48.622;9.230;2023-06-14T01:25:03;8.60;;;7.82;;
25653;SDS011;13511;48.622;9.230;2023-06-14T01:27:29;8.15;;;7.57;;
25653;SDS011;13511;48.622;9.230;2023-06-14T01:29:57;9.88;;;7.82;;
25653;SDS011;13511;48.622;9.230;2023-06-14T01:32:26;9.00;;;8.23;;
25653;SDS011;13511;48.622;9.230;2023-06-14T01:34:52;7.82;;;7.18;;
25653;SDS011;13511;48.622;9.230;2023-06-14T01:37:18;8.90;;;8.02;;
25653;SDS011;13511;48.622;9.230;2023-06-14T01:39:45;8.73;;;7.93;;
25653;SDS011;13511;48.622;9.230;2023-06-14T01:42:12;7.95;;;7.45;;
25653;SDS011;13511;48.622;9.230;2023-06-14T01:44:40;7.95;;;7.35;;
25653;SDS011;13511;48.622;9.230;2023-06-14T01:47:06;8.30;;;7.50;;
25653;SDS011;13511;48.622;9.230;2023-06-14T01:49:35;9.20;;;8.40;;
25653;SDS011;13511;48.622;9.230;2023-06-14T01:52:01;10.90;;;8.35;;
25653;SDS011;13511;48.622;9.230;2023-06-14T01:54:27;8.50;;;7.78;;
25653;SDS011;13511;48.622;9.230;2023-06-14T01:56:54;8.73;;;8.02;;
25653;SDS011;13511;48.622;9.230;2023-06-14T01:59:20;8.60;;;7.95;;
25653;SDS011;13511;48.622;9.230;2023-06-14T02:01:47;7.90;;;7.40;;
25653;SDS011;13511;48.622;9.230;2023-06-14T02:04:12;8.68;;;7.97;;
25653;SDS011;13511;48.622;9.230;2023-06-14T02:06:38;11.95;;;7.80;;
25653;SDS011;13511;48.622;9.230;2023-06-14T02:09:04;8.40;;;7.80;;
25653;SDS011;13511;48.622;9.230;2023-06-14T02:11:30;9.05;;;8.27;;
25653;SDS011;13511;48.622;9.230;2023-06-14T02:13:56;8.45;;;7.68;;
25653;SDS011;13511;48.622;9.230;2023-06-14T02:16:24;8.77;;;8.00;;
25653;SDS011;13511;48.622;9.230;2023-06-14T02:18:53;9.10;;;7.72;;
25653;SDS011;13511;48.622;9.230;2023-06-14T02:21:20;8.27;;;7.57;;
25653;SDS011;13511;48.622;9.230;2023-06-14T02:23:46;8.43;;;7.65;;
25653;SDS011;13511;48.622;9.230;2023-06-14T02:26:12;9.15;;;8.25;;
25653;SDS011;13511;48.622;9.230;2023-06-14T02:28:38;8.93;;;8.13;;
25653;SDS011;13511;48.622;9.230;2023-06-14T02:31:04;8.50;;;7.90;;
25653;SDS011;13511;48.622;9.230;2023-06-14T02:33:30;8.38;;;7.88;;
25653;SDS011;13511;48.622;9.230;2023-06-14T02:35:56;10.68;;;8.70;;
25653;SDS011;13511;48.622;9.230;2023-06-14T02:38:23;9.10;;;8.40;;
25653;SDS011;13511;48.622;9.230;2023-06-14T02:40:49;8.48;;;7.75;;
25653;SDS011;13511;48.622;9.230;2023-06-14T02:43:15;8.60;;;7.90;;
25653;SDS011;13511;48.622;9.230;2023-06-14T02:45:42;8.98;;;8.23;;
25653;SDS011;13511;48.622;9.230;2023-06-14T02:48:08;8.73;;;8.13;;
25653;SDS011;13511;48.622;9.230;2023-06-14T02:50:35;8.60;;;7.80;;
25653;SDS011;13511;48.622;9.230;2023-06-14T02:53:01;8.00;;;7.53;;
25653;SDS011;13511;48.622;9.230;2023-06-14T02:55:27;9.35;;;8.55;;
25653;SDS011;13511;48.622;9.230;2023-06-14T02:57:53;8.77;;;7.97;;
25653;SDS011;13511;48.622;9.230;2023-06-14T03:00:20;9.23;;;8.30;;
25653;SDS011;13511;48.622;9.230;2023-06-14T03:02:46;9.43;;;8.73;;
25653;SDS011;13511;48.622;9.230;2023-06-14T03:05:12;9.25;;;8.40;;
25653;SDS011;13511;48.622;9.230;2023-06-14T03:07:38;8.88;;;8.27;;
25653;SDS011;13511;48.622;9.230;2023-06-14T03:10:06;9.57;;;8.63;;
25653;SDS011;13511;48.622;9.230;2023-06-14T03:12:33;8.48;;;7.72;;
25653;SDS011;13511;48.622;9.230;2023-06-14T03:14:59;13.73;;;8.02;;
25653;SDS011;13511;48.622;9.230;2023-06-14T03:17:29;8.90;;;8.13;;
25653;SDS011;13511;48.622;9.230;2023-06-14T03:19:58;9.43;;;8.52;;
25653;SDS011;13511;48.622;9.230;2023-06-14T03:22:24;9.38;;;8.50;;
25653;SDS011;13511;48.622;9.230;2023-06-14T03:24:51;9.95;;;8.63;;
25653;SDS011;13511;48.622;9.230;2023-06-14T03:27:17;9.10;;;8.27;;
25653;SDS011;13511;48.622;9.230;2023-06-14T03:29:43;8.88;;;8.20;;
25653;SDS011;13511;48.622;9.230;2023-06-14T03:32:09;8.80;;;8.10;;
25653;SDS011;13511;48.622;9.230;2023-06-14T03:34:35;9.63;;;8.55;;
25653;SDS011;13511;48.622;9.230;2023-06-14T03:37:04;9.77;;;8.88;;
25653;SDS011;13511;48.622;9.230;2023-06-14T03:39:30;9.50;;;8.63;;
25653;SDS011;13511;48.622;9.230;2023-06-14T03:41:56;9.15;;;8.50;;
25653;SDS011;13511;48.622;9.230;2023-06-14T03:44:22;9.57;;;8.45;;
25653;SDS011;13511;48.622;9.230;2023-06-14T03:46:48;8.73;;;8.02;;
25653;SDS011;13511;48.622;9.230;2023-06-14T03:49:15;8.45;;;7.80;;
25653;SDS011;13511;48.622;9.230;2023-06-14T03:51:42;9.20;;;8.40;;
25653;SDS011;13511;48.622;9.230;2023-06-14T03:54:08;9.50;;;8.55;;
25653;SDS011;13511;48.622;9.230;2023-06-14T03:56:34;9.23;;;8.48;;
25653;SDS011;13511;48.622;9.230;2023-06-14T03:59:01;10.00;;;9.07;;
25653;SDS011;13511;48.622;9.230;2023-06-14T04:01:27;9.80;;;8.98;;
25653;SDS011;13511;48.622;9.230;2023-06-14T04:03:55;9.48;;;8.70;;
25653;SDS011;13511;48.622;9.230;2023-06-14T04:06:21;9.20;;;8.40;;
25653;SDS011;13511;48.622;9.230;2023-06-14T04:08:49;9.50;;;8.68;;
25653;SDS011;13511;48.622;9.230;2023-06-14T04:11:15;9.90;;;8.90;;
25653;SDS011;13511;48.622;9.230;2023-06-14T04:13:41;9.98;;;9.07;;
25653;SDS011;13511;48.622;9.230;2023-06-14T04:16:07;13.25;;;9.20;;
25653;SDS011;13511;48.622;9.230;2023-06-14T04:18:33;10.32;;;9.43;;
25653;SDS011;13511;48.622;9.230;2023-06-14T04:20:59;10.57;;;8.82;;
25653;SDS011;13511;48.622;9.230;2023-06-14T04:23:26;9.95;;;9.15;;
25653;SDS011;13511;48.622;9.230;2023-06-14T04:25:53;9.05;;;8.25;;
25653;SDS011;13511;48.622;9.230;2023-06-14T04:28:19;9.75;;;8.95;;
25653;SDS011;13511;48.622;9.230;2023-06-14T04:30:45;9.65;;;8.73;;
25653;SDS011;13511;48.622;9.230;2023-06-14T04:33:12;9.65;;;8.90;;
25653;SDS011;13511;48.622;9.230;2023-06-14T04:35:38;9.35;;;8.60;;
25653;SDS011;13511;48.622;9.230;2023-06-14T04:38:05;10.77;;;8.77;;
25653;SDS011;13511;48.622;9.230;2023-06-14T04:40:38;9.40;;;8.60;;
25653;SDS011;13511;48.622;9.230;2023-06-14T04:43:10;9.90;;;8.93;;
25653;SDS011;13511;48.622;9.230;2023-06-14T04:45:40;10.18;;;8.57;;
25653;SDS011;13511;48.622;9.230;2023-06-14T04:48:09;8.98;;;8.23;;
25653;SDS011;13511;48.622;9.230;2023-06-14T04:50:37;11.77;;;9.38;;
25653;SDS011;13511;48.622;9.230;2023-06-14T04:53:05;9.73;;;8.80;;
25653;SDS011;13511;48.622;9.230;2023-06-14T04:55:31;9.68;;;8.65;;
25653;SDS011;13511;48.622;9.230;2023-06-14T04:57:57;9.38;;;8.38;;
25653;SDS011;13511;48.622;9.230;2023-06-14T05:00:24;8.82;;;7.97;;
25653;SDS011;13511;48.622;9.230;2023-06-14T05:02:50;9.23;;;8.32;;
25653;SDS011;13511;48.622;9.230;2023-06-14T05:05:18;8.48;;;7.85;;
25653;SDS011;13511;48.622;9.230;2023-06-14T05:07:46;12.23;;;8.48;;
25653;SDS011;13511;48.622;9.230;2023-06-14T05:10:12;11.52;;;8.95;;
25653;SDS011;13511;48.622;9.230;2023-06-14T05:12:37;9.80;;;8.57;;
25653;SDS011;13511;48.622;9.230;2023-06-14T05:15:04;9.25;;;8.45;;
25653;SDS011;13511;48.622;9.230;2023-06-14T05:17:30;9.68;;;8.70;;
25653;SDS011;13511;48.622;9.230;2023-06-14T05:19:56;9.20;;;8.35;;
25653;SDS011;13511;48.622;9.230;2023-06-14T05:22:22;10.13;;;8.98;;
25653;SDS011;13511;48.622;9.230;2023-06-14T05:24:48;10.60;;;8.27;;
25653;SDS011;13511;48.622;9.230;2023-06-14T05:27:14;9.75;;;8.80;;
25653;SDS011;13511;48.622;9.230;2023-06-14T05:29:40;10.10;;;9.20;;
25653;SDS011;13511;48.622;9.230;2023-06-14T05:32:06;9.27;;;8.38;;
25653;SDS011;13511;48.622;9.230;2023-06-14T05:34:33;8.93;;;7.90;;
25653;SDS011;13511;48.622;9.230;2023-06-14T05:36:59;9.10;;;8.40;;
25653;SDS011;13511;48.622;9.230;2023-06-14T05:39:25;9.65;;;8.77;;
25653;SDS011;13511;48.622;9.230;2023-06-14T05:41:51;9.57;;;8.88;;
25653;SDS011;13511;48.622;9.230;2023-06-14T05:44:17;9.05;;;8.13;;
25653;SDS011;13511;48.622;9.230;2023-06-14T05:46:43;9.07;;;8.23;;
25653;SDS011;13511;48.622;9.230;2023-06-14T05:49:09;9.20;;;8.18;;
25653;SDS011;13511;48.622;9.230;2023-06-14T05:51:36;9.52;;;8.63;;
25653;SDS011;13511;48.622;9.230;2023-06-14T05:54:02;10.82;;;8.98;;
25653;SDS011;13511;48.622;9.230;2023-06-14T05:56:28;9.10;;;7.82;;
25653;SDS011;13511;48.622;9.230;2023-06-14T05:58:54;9.30;;;8.38;;
25653;SDS011;13511;48.622;9.230;2023-06-14T06:01:20;9.13;;;8.35;;
25653;SDS011;13511;48.622;9.230;2023-06-14T06:03:46;8.68;;;7.97;;
25653;SDS011;13511;48.622;9.230;2023-06-14T06:06:13;14.48;;;9.13;;
25653;SDS011;13511;48.622;9.230;2023-06-14T06:08:39;10.07;;;8.25;;
25653;SDS011;13511;48.622;9.230;2023-06-14T06:11:05;9.15;;;8.30;;
25653;SDS011;13511;48.622;9.230;2023-06-14T06:13:31;10.05;;;8.02;;
25653;SDS011;13511;48.622;9.230;2023-06-14T06:15:57;9.68;;;8.50;;
25653;SDS011;13511;48.622;9.230;2023-06-14T06:18:23;9.27;;;8.32;;
25653;SDS011;13511;48.622;9.230;2023-06-14T06:20:49;8.88;;;8.00;;
25653;SDS011;13511;48.622;9.230;2023-06-14T06:23:16;9.18;;;8.38;;
25653;SDS011;13511;48.622;9.230;2023-06-14T06:25:42;9.30;;;8.40;;
25653;SDS011;13511;48.622;9.230;2023-06-14T06:28:08;9.68;;;8.70;;
25653;SDS011;13511;48.622;9.230;2023-06-14T06:30:34;9.55;;;8.60;;
25653;SDS011;13511;48.622;9.230;2023-06-14T06:33:01;9.75;;;8.95;;
25653;SDS011;13511;48.622;9.230;2023-06-14T06:35:28;10.25;;;9.10;;
25653;SDS011;13511;48.622;9.230;2023-06-14T06:37:55;12.73;;;10.00;;
25653;SDS011;13511;48.622;9.230;2023-06-14T06:40:22;12.43;;;10.25;;
25653;SDS011;13511;48.622;9.230;2023-06-14T06:42:48;10.85;;;9.73;;
25653;SDS011;13511;48.622;9.230;2023-06-14T06:45:15;10.43;;;9.63;;
25653;SDS011;13511;48.622;9.230;2023-06-14T06:47:41;9.65;;;8.73;;
25653;SDS011;13511;48.622;9.230;2023-06-14T06:50:07;12.20;;;8.95;;
25653;SDS011;13511;48.622;9.230;2023-06-14T06:52:33;10.05;;;8.55;;
25653;SDS011;13511;48.622;9.230;2023-06-14T06:55:00;8.75;;;8.15;;
25653;SDS011;13511;48.622;9.230;2023-06-14T06:57:27;11.35;;;9.13;;
25653;SDS011;13511;48.622;9.230;2023-06-14T06:59:54;11.18;;;9.27;;
25653;SDS011;13511;48.622;9.230;2023-06-14T07:02:20;10.43;;;8.63;;
25653;SDS011;13511;48.622;9.230;2023-06-14T07:04:46;10.23;;;8.93;;
25653;SDS011;13511;48.622;9.230;2023-06-14T07:07:12;13.23;;;9.38;;
25653;SDS011;13511;48.622;9.230;2023-06-14T07:09:38;10.38;;;8.75;;
25653;SDS011;13511;48.622;9.230;2023-06-14T07:12:05;10.07;;;9.05;;
25653;SDS011;13511;48.622;9.230;2023-06-14T07:14:31;10.25;;;9.18;;
25653;SDS011;13511;48.622;9.230;2023-06-14T07:16:58;10.52;;;9.02;;
25653;SDS011;13511;48.622;9.230;2023-06-14T07:19:24;13.05;;;9.60;;
25653;SDS011;13511;48.622;9.230;2023-06-14T07:21:50;19.20;;;9.32;;
25653;SDS011;13511;48.622;9.230;2023-06-14T07:24:16;9.93;;;9.13;;
25653;SDS011;13511;48.622;9.230;2023-06-14T07:26:42;15.30;;;8.93;;
25653;SDS011;13511;48.622;9.230;2023-06-14T07:29:08;8.73;;;7.90;;
25653;SDS011;13511;48.622;9.230;2023-06-14T07:31:34;17.95;;;9.25;;
25653;SDS011;13511;48.622;9.230;2023-06-14T07:34:00;9.68;;;8.70;;
25653;SDS011;13511;48.622;9.230;2023-06-14T07:36:26;9.27;;;7.80;;
25653;SDS011;13511;48.622;9.230;2023-06-14T07:38:52;8.95;;;7.38;;
25653;SDS011;13511;48.622;9.230;2023-06-14T07:41:19;7.97;;;7.03;;
25653;SDS011;13511;48.622;9.230;2023-06-14T07:43:45;7.95;;;6.82;;
25653;SDS011;13511;48.622;9.230;2023-06-14T07:46:11;7.55;;;7.00;;
25653;SDS011;13511;48.622;9.230;2023-06-14T07:48:37;7.25;;;6.50;;
25653;SDS011;13511;48.622;9.230;2023-06-14T07:51:03;7.50;;;6.80;;
25653;SDS011;13511;48.622;9.230;2023-06-14T07:53:29;10.65;;;7.32;;
25653;SDS011;13511;48.622;9.230;2023-06-14T07:55:56;7.35;;;6.60;;
25653;SDS011;13511;48.622;9.230;2023-06-14T07:58:22;10.48;;;6.95;;
25653;SDS011;13511;48.622;9.230;2023-06-14T08:00:48;7.43;;;6.47;;
25653;SDS011;13511;48.622;9.230;2023-06-14T08:03:14;7.55;;;6.75;;
25653;SDS011;13511;48.622;9.230;2023-06-14T08:05:40;10.70;;;7.10;;
25653;SDS011;13511;48.622;9.230;2023-06-14T08:08:06;8.45;;;6.90;;
25653;SDS011;13511;48.622;9.230;2023-06-14T08:10:33;10.05;;;6.72;;
25653;SDS011;13511;48.622;9.230;2023-06-14T08:12:59;7.18;;;6.50;;
25653;SDS011;13511;48.622;9.230;2023-06-14T08:15:25;12.10;;;6.97;;
25653;SDS011;13511;48.622;9.230;2023-06-14T08:17:51;8.20;;;6.63;;
25653;SDS011;13511;48.622;9.230;2023-06-14T08:20:17;8.90;;;7.03;;
25653;SDS011;13511;48.622;9.230;2023-06-14T08:22:43;9.35;;;6.70;;
25653;SDS011;13511;48.622;9.230;2023-06-14T08:25:11;8.13;;;7.22;;
25653;SDS011;13511;48.622;9.230;2023-06-14T08:27:37;7.47;;;6.78;;
25653;SDS011;13511;48.622;9.230;2023-06-14T08:30:03;13.30;;;7.15;;
25653;SDS011;13511;48.622;9.230;2023-06-14T08:32:29;9.10;;;6.72;;
25653;SDS011;13511;48.622;9.230;2023-06-14T08:34:55;8.02;;;6.97;;
25653;SDS011;13511;48.622;9.230;2023-06-14T08:37:21;10.85;;;6.90;;
25653;SDS011;13511;48.622;9.230;2023-06-14T08:39:47;9.45;;;7.90;;
25653;SDS011;13511;48.622;9.230;2023-06-14T08:42:14;7.90;;;6.95;;
25653;SDS011;13511;48.622;9.230;2023-06-14T08:44:40;8.07;;;7.38;;
25653;SDS011;13511;48.622;9.230;2023-06-14T08:47:07;8.32;;;6.95;;
25653;SDS011;13511;48.622;9.230;2023-06-14T08:49:33;7.35;;;6.65;;
25653;SDS011;13511;48.622;9.230;2023-06-14T08:52:01;7.50;;;6.82;;
25653;SDS011;13511;48.622;9.230;2023-06-14T08:54:28;7.90;;;7.30;;
25653;SDS011;13511;48.622;9.230;2023-06-14T08:57:01;7.47;;;6.78;;
25653;SDS011;13511;48.622;9.230;2023-06-14T08:59:27;9.23;;;7.25;;
25653;SDS011;13511;48.622;9.230;2023-06-14T09:01:54;9.85;;;6.40;;
25653;SDS011;13511;48.622;9.230;2023-06-14T09:04:20;7.13;;;6.53;;
25653;SDS011;13511;48.622;9.230;2023-06-14T09:06:54;8.80;;;6.80;;
25653;SDS011;13511;48.622;9.230;2023-06-14T09:09:20;7.75;;;6.95;;
25653;SDS011;13511;48.622;9.230;2023-06-14T09:11:48;8.77;;;6.38;;
25653;SDS011;13511;48.622;9.230;2023-06-14T09:14:14;10.45;;;6.82;;
25653;SDS011;13511;48.622;9.230;2023-06-14T09:16:40;7.70;;;7.03;;
25653;SDS011;13511;48.622;9.230;2023-06-14T09:19:06;7.25;;;6.68;;
25653;SDS011;13511;48.622;9.230;2023-06-14T09:21:33;7.93;;;6.68;;
25653;SDS011;13511;48.622;9.230;2023-06-14T09:24:01;7.25;;;6.55;;
25653;SDS011;13511;48.622;9.230;2023-06-14T09:26:27;7.25;;;6.57;;
25653;SDS011;13511;48.622;9.230;2023-06-14T09:28:54;7.63;;;6.55;;
25653;SDS011;13511;48.622;9.230;2023-06-14T09:31:20;7.85;;;7.13;;
25653;SDS011;13511;48.622;9.230;2023-06-14T09:33:50;7.55;;;6.85;;
25653;SDS011;13511;48.622;9.230;2023-06-14T09:36:22;8.00;;;6.68;;
25653;SDS011;13511;48.622;9.230;2023-06-14T09:38:53;9.70;;;6.97;;
25653;SDS011;13511;48.622;9.230;2023-06-14T09:41:19;10.20;;;6.90;;
25653;SDS011;13511;48.622;9.230;2023-06-14T09:43:46;11.48;;;7.45;;
25653;SDS011;13511;48.622;9.230;2023-06-14T09:46:13;9.23;;;6.90;;
25653;SDS011;13511;48.622;9.230;2023-06-14T09:48:39;7.63;;;6.90;;
25653;SDS011;13511;48.622;9.230;2023-06-14T09:51:09;7.68;;;6.97;;
25653;SDS011;13511;48.622;9.230;2023-06-14T09:53:35;7.93;;;7.13;;
25653;SDS011;13511;48.622;9.230;2023-06-14T09:56:02;7.25;;;6.72;;
25653;SDS011;13511;48.622;9.230;2023-06-14T09:58:30;7.10;;;6.53;;
25653;SDS011;13511;48.622;9.230;2023-06-14T10:00:56;7.55;;;6.72;;
25653;SDS011;13511;48.622;9.230;2023-06-14T10:03:28;7.47;;;6.97;;
25653;SDS011;13511;48.622;9.230;2023-06-14T10:05:58;6.75;;;6.07;;
25653;SDS011;13511;48.622;9.230;2023-06-14T10:08:27;7.00;;;6.10;;
25653;SDS011;13511;48.622;9.230;2023-06-14T10:10:55;8.15;;;6.93;;
25653;SDS011;13511;48.622;9.230;2023-06-14T10:13:21;11.05;;;6.82;;
25653;SDS011;13511;48.622;9.230;2023-06-14T10:15:52;7.30;;;6.72;;
25653;SDS011;13511;48.622;9.230;2023-06-14T10:18:26;7.05;;;6.55;;
25653;SDS011;13511;48.622;9.230;2023-06-14T10:20:58;6.85;;;6.35;;
25653;SDS011;13511;48.622;9.230;2023-06-14T10:23:26;9.65;;;6.72;;
25653;SDS011;13511;48.622;9.230;2023-06-14T10:25:54;7.93;;;7.10;;
25653;SDS011;13511;48.622;9.230;2023-06-14T10:28:21;6.70;;;6.30;;
25653;SDS011;13511;48.622;9.230;2023-06-14T10:33:27;7.65;;;7.10;;
25653;SDS011;13511;48.622;9.230;2023-06-14T10:36:35;10.48;;;6.85;;
25653;SDS011;13511;48.622;9.230;2023-06-14T10:38:42;6.38;;;5.90;;
25653;SDS011;13511;48.622;9.230;2023-06-14T10:41:08;7.10;;;6.50;;
25653;SDS011;13511;48.622;9.230;2023-06-14T10:43:35;6.93;;;6.22;;
25653;SDS011;13511;48.622;9.230;2023-06-14T10:46:14;7.30;;;6.70;;
25653;SDS011;13511;48.622;9.230;2023-06-14T10:48:41;9.55;;;6.95;;
25653;SDS011;13511;48.622;9.230;2023-06-14T10:51:14;7.80;;;6.72;;
25653;SDS011;13511;48.622;9.230;2023-06-14T10:53:45;6.90;;;6.47;;
25653;SDS011;13511;48.622;9.230;2023-06-14T10:56:22;6.82;;;6.22;;
25653;SDS011;13511;48.622;9.230;2023-06-14T10:58:49;7.13;;;6.57;;
25653;SDS011;13511;48.622;9.230;2023-06-14T11:01:18;7.13;;;6.63;;
25653;SDS011;13511;48.622;9.230;2023-06-14T11:03:51;6.97;;;6.38;;
25653;SDS011;13511;48.622;9.230;2023-06-14T11:06:19;7.78;;;7.07;;
25653;SDS011;13511;48.622;9.230;2023-06-14T11:11:14;7.35;;;6.70;;
25653;SDS011;13511;48.622;9.230;2023-06-14T11:13:44;7.57;;;6.75;;
25653;SDS011;13511;48.622;9.230;2023-06-14T11:18:37;10.88;;;6.22;;
25653;SDS011;13511;48.622;9.230;2023-06-14T11:21:03;8.38;;;5.85;;
25653;SDS011;13511;48.622;9.230;2023-06-14T11:23:29;7.15;;;6.47;;
25653;SDS011;13511;48.622;9.230;2023-06-14T11:25:55;7.20;;;6.20;;
25653;SDS011;13511;48.622;9.230;2023-06-14T11:28:21;6.85;;;6.18;;
25653;SDS011;13511;48.622;9.230;2023-06-14T11:30:48;7.38;;;6.38;;
25653;SDS011;13511;48.622;9.230;2023-06-14T11:33:18;7.25;;;6.60;;
25653;SDS011;13511;48.622;9.230;2023-06-14T11:35:44;7.47;;;6.70;;
25653;SDS011;13511;48.622;9.230;2023-06-14T11:38:10;7.20;;;6.65;;
25653;SDS011;13511;48.622;9.230;2023-06-14T11:40:37;7.55;;;6.72;;
25653;SDS011;13511;48.622;9.230;2023-06-14T11:43:03;7.07;;;6.43;;
25653;SDS011;13511;48.622;9.230;2023-06-14T11:45:30;7.63;;;6.50;;
25653;SDS011;13511;48.622;9.230;2023-06-14T11:47:57;6.90;;;6.25;;
25653;SDS011;13511;48.622;9.230;2023-06-14T11:50:23;6.88;;;6.25;;
25653;SDS011;13511;48.622;9.230;2023-06-14T11:52:56;6.57;;;6.07;;
25653;SDS011;13511;48.622;9.230;2023-06-14T11:55:22;7.15;;;6.50;;
25653;SDS011;13511;48.622;9.230;2023-06-14T11:57:49;9.07;;;6.50;;
25653;SDS011;13511;48.622;9.230;2023-06-14T12:00:15;7.82;;;6.93;;
25653;SDS011;13511;48.622;9.230;2023-06-14T12:02:42;7.78;;;6.35;;
25653;SDS011;13511;48.622;9.230;2023-06-14T12:05:09;7.40;;;6.75;;
25653;SDS011;13511;48.622;9.230;2023-06-14T12:07:38;7.10;;;6.50;;
25653;SDS011;13511;48.622;9.230;2023-06-14T12:10:10;7.45;;;6.78;;
25653;SDS011;13511;48.622;9.230;2023-06-14T12:12:38;6.60;;;6.20;;
25653;SDS011;13511;48.622;9.230;2023-06-14T12:15:04;8.63;;;6.10;;
25653;SDS011;13511;48.622;9.230;2023-06-14T12:17:34;7.15;;;6.47;;
25653;SDS011;13511;48.622;9.230;2023-06-14T12:20:09;7.10;;;6.50;;
25653;SDS011;13511;48.622;9.230;2023-06-14T12:22:51;7.00;;;6.30;;
25653;SDS011;13511;48.622;9.230;2023-06-14T12:27:54;7.93;;;6.90;;
25653;SDS011;13511;48.622;9.230;2023-06-14T12:30:20;7.53;;;6.80;;
25653;SDS011;13511;48.622;9.230;2023-06-14T12:32:47;6.55;;;5.95;;
25653;SDS011;13511;48.622;9.230;2023-06-14T12:35:14;7.72;;;7.13;;
25653;SDS011;13511;48.622;9.230;2023-06-14T12:37:40;6.85;;;6.40;;
25653;SDS011;13511;48.622;9.230;2023-06-14T12:40:06;7.47;;;6.70;;
25653;SDS011;13511;48.622;9.230;2023-06-14T12:42:32;9.52;;;7.05;;
25653;SDS011;13511;48.622;9.230;2023-06-14T12:44:59;10.25;;;6.85;;
25653;SDS011;13511;48.622;9.230;2023-06-14T12:47:25;7.35;;;6.65;;
25653;SDS011;13511;48.622;9.230;2023-06-14T12:49:52;10.75;;;6.75;;
25653;SDS011;13511;48.622;9.230;2023-06-14T12:52:18;8.18;;;6.55;;
25653;SDS011;13511;48.622;9.230;2023-06-14T12:54:44;7.75;;;7.15;;
25653;SDS011;13511;48.622;9.230;2023-06-14T12:57:10;8.32;;;7.03;;
25653;SDS011;13511;48.622;9.230;2023-06-14T12:59:36;8.63;;;6.97;;
25653;SDS011;13511;48.622;9.230;2023-06-14T13:02:18;7.63;;;6.90;;
25653;SDS011;13511;48.622;9.230;2023-06-14T13:04:45;12.05;;;7.75;;
25653;SDS011;13511;48.622;9.230;2023-06-14T13:07:11;7.22;;;6.72;;
25653;SDS011;13511;48.622;9.230;2023-06-14T13:09:37;7.72;;;7.22;;
25653;SDS011;13511;48.622;9.230;2023-06-14T13:12:03;7.82;;;7.00;;
25653;SDS011;13511;48.622;9.230;2023-06-14T13:14:30;7.72;;;6.95;;
25653;SDS011;13511;48.622;9.230;2023-06-14T13:16:57;7.50;;;6.88;;
25653;SDS011;13511;48.622;9.230;2023-06-14T13:19:23;7.35;;;6.60;;
25653;SDS011;13511;48.622;9.230;2023-06-14T13:21:49;7.47;;;6.88;;
25653;SDS011;13511;48.622;9.230;2023-06-14T13:24:15;7.50;;;6.75;;
25653;SDS011;13511;48.622;9.230;2023-06-14T13:26:41;7.50;;;6.63;;
25653;SDS011;13511;48.622;9.230;2023-06-14T13:29:07;6.93;;;6.38;;
25653;SDS011;13511;48.622;9.230;2023-06-14T13:31:33;7.00;;;6.20;;
25653;SDS011;13511;48.622;9.230;2023-06-14T13:33:59;7.63;;;7.05;;
25653;SDS011;13511;48.622;9.230;2023-06-14T13:36:25;6.47;;;5.97;;
25653;SDS011;13511;48.622;9.230;2023-06-14T13:38:51;7.18;;;6.55;;
25653;SDS011;13511;48.622;9.230;2023-06-14T13:41:18;8.80;;;6.75;;
25653;SDS011;13511;48.622;9.230;2023-06-14T13:43:44;7.07;;;6.30;;
25653;SDS011;13511;48.622;9.230;2023-06-14T13:46:10;7.22;;;6.72;;
25653;SDS011;13511;48.622;9.230;2023-06-14T13:48:36;7.05;;;6.45;;
25653;SDS011;13511;48.622;9.230;2023-06-14T13:51:02;6.72;;;6.13;;
25653;SDS011;13511;48.622;9.230;2023-06-14T13:53:29;6.85;;;6.35;;
25653;SDS011;13511;48.622;9.230;2023-06-14T13:55:55;6.50;;;6.10;;
25653;SDS011;13511;48.622;9.230;2023-06-14T13:58:21;7.40;;;6.90;;
25653;SDS011;13511;48.622;9.230;2023-06-14T14:00:49;7.00;;;6.40;;
25653;SDS011;13511;48.622;9.230;2023-06-14T14:03:15;10.38;;;6.38;;
25653;SDS011;13511;48.622;9.230;2023-06-14T14:05:41;7.32;;;6.72;;
25653;SDS011;13511;48.622;9.230;2023-06-14T14:08:07;6.80;;;6.28;;
25653;SDS011;13511;48.622;9.230;2023-06-14T14:10:33;7.38;;;6.38;;
25653;SDS011;13511;48.622;9.230;2023-06-14T14:12:59;6.47;;;6.05;;
25653;SDS011;13511;48.622;9.230;2023-06-14T14:15:26;6.45;;;5.82;;
25653;SDS011;13511;48.622;9.230;2023-06-14T14:17:53;7.65;;;6.53;;
25653;SDS011;13511;48.622;9.230;2023-06-14T14:20:19;9.32;;;6.30;;
25653;SDS011;13511;48.622;9.230;2023-06-14T14:22:45;6.80;;;6.18;;
25653;SDS011;13511;48.622;9.230;2023-06-14T14:25:11;7.63;;;7.00;;
25653;SDS011;13511;48.622;9.230;2023-06-14T14:27:37;6.88;;;6.35;;
25653;SDS011;13511;48.622;9.230;2023-06-14T14:30:04;7.20;;;6.15;;
25653;SDS011;13511;48.622;9.230;2023-06-14T14:32:30;6.13;;;5.50;;
25653;SDS011;13511;48.622;9.230;2023-06-14T14:34:56;7.32;;;6.50;;
25653;SDS011;13511;48.622;9.230;2023-06-14T14:37:23;6.40;;;5.80;;
25653;SDS011;13511;48.622;9.230;2023-06-14T14:39:49;7.65;;;6.10;;
25653;SDS011;13511;48.622;9.230;2023-06-14T14:42:15;8.85;;;6.47;;
25653;SDS011;13511;48.622;9.230;2023-06-14T14:44:41;6.80;;;5.70;;
25653;SDS011;13511;48.622;9.230;2023-06-14T14:47:09;7.60;;;5.78;;
25653;SDS011;13511;48.622;9.230;2023-06-14T14:49:35;7.22;;;6.40;;
25653;SDS011;13511;48.622;9.230;2023-06-14T14:52:01;11.35;;;6.30;;
25653;SDS011;13511;48.622;9.230;2023-06-14T14:54:27;9.90;;;6.35;;
25653;SDS011;13511;48.622;9.230;2023-06-14T14:56:54;6.63;;;6.20;;